Latest Coastal Weather Observations for Mornington Island Airport

IDQ60701

Issued at 4:05 am EST Thursday 24 April 2014 (issued every 10 minutes, with the page automatically refreshed every 10 minutes)

About coastal observations | Map of coastal stations | Coastal observations for QLD | Marine services | Other Formats
Station Details ID: 029182 Name: MORNINGTON ISLAND AIRPORT Lat: -16.66 Lon: 139.17 Height: 9.0 m
Data from the previous 72 hours. | See also: Recent months for locations in Queensland
Date/Time
EST
Temp

°C
Wind Pressure Rain
since 9am
mm
Weather Cloud Vis
km
Sea
Height
m
Swell
Dir
 
Speed
knots
Gust
knots
hPa Trend Height
m
Period
s
Dir
24/04:00am 24.3 ESE 8 11 1008.7 - 56.2 - - - - - - -
24/03:30am 24.3 ESE 10 14 1008.6 - 56.0 - - - - - - -
24/03:00am 24.7 ESE 10 13 1008.8 - 55.0 - - - - - - -
24/02:30am 24.3 E 9 15 1008.7 - 54.8 - - - - - - -
24/02:00am 24.4 SE 9 14 1009.3 - 52.4 - - - - - - -
24/01:30am 24.4 SE 7 11 1009.8 - 51.8 - - - - - - -
24/01:00am 24.5 ESE 11 16 1010.2 - 51.8 - - - - - - -
24/12:30am 24.8 SE 10 17 1010.4 - 51.8 - - - - - - -
24/12:00am 24.4 SE 8 13 1011.0 - 51.6 - - - - - - -
 
Date/Time
EST
Temp

°C
Wind Pressure Rain
since 9am
mm
Weather Cloud Vis
km
Sea
Height
m
Swell
Dir
 
Speed
knots
Gust
knots
hPa Trend Height
m
Period
s
Dir
23/11:30pm 24.5 SE 10 15 1011.1 - 51.4 - - - - - - -
23/11:00pm 24.7 SE 10 13 1011.3 - 50.8 - - - - - - -
23/10:30pm 24.2 SSE 6 13 1011.5 - 50.6 - - - - - - -
23/10:00pm 24.1 SE 11 18 1011.6 - 46.2 - - - - - - -
23/09:30pm 24.7 SSE 9 14 1011.5 - 20.6 - - - - - - -
23/09:00pm 25.2 SSE 8 13 1011.6 - 18.2 - - - - - - -
23/08:30pm 25.1 SE 9 15 1011.1 - 18.2 - - - - - - -
23/08:00pm 25.1 SE 10 15 1011.0 - 18.2 - - - - - - -
23/07:30pm 24.9 SE 7 11 1010.8 - 18.2 - - - - - - -
23/07:00pm 24.3 SE 7 10 1010.7 - 18.2 - - - - - - -
23/06:30pm 24.3 ESE 10 18 1010.5 - 18.2 - - - - - - -
23/06:00pm 24.8 SE 6 8 1010.5 - 18.2 - - - - - - -
23/05:30pm 24.6 ESE 9 14 1010.1 - 18.2 - - - - - - -
23/05:00pm 25.4 ESE 8 11 1010.0 - 18.0 - - - - - - -
23/04:30pm 25.7 ESE 9 11 1010.0 - 18.0 - - - - - - -
23/04:00pm 26.3 E 12 15 1009.7 - 17.8 - - - - - - -
23/03:30pm 26.5 E 11 15 1009.7 - 17.8 - - - - - - -
23/03:00pm 26.4 ESE 11 14 1009.8 - 17.8 - - - - - - -
23/02:30pm 25.5 E 10 14 1010.0 - 17.8 - - - - - - -
23/02:00pm 25.6 E 10 15 1010.2 - 17.8 - - - - - - -
23/01:30pm 25.2 ESE 8 11 1010.6 - 17.6 - - - - - - -
23/01:00pm 24.7 ESE 12 17 1010.6 - 17.2 - - - - - - -
23/12:30pm 23.9 ESE 9 14 1011.6 - 15.6 - - - - - - -
23/12:00pm 25.3 E 6 16 1012.5 - 5.8 - - - - - - -
23/11:30am 25.6 ESE 5 8 1012.5 - 2.4 - - - - - - -
23/11:00am 25.5 ESE 7 10 1012.8 - 2.0 - - - - - - -
23/10:30am 25.3 E 8 10 1012.9 - 2.0 - - - - - - -
23/10:00am 25.1 E 8 11 1012.9 - 1.8 - - - - - - -
23/09:30am 24.9 E 7 10 1012.6 - 1.6 - - - - - - -
23/09:00am 24.8 E 5 7 1012.3 - 33.8 - - - - - - -
23/08:30am 24.9 ESE 7 9 1012.0 - 32.6 - - - - - - -
23/08:00am 25.1 E 6 13 1011.8 - 31.8 - - - - - - -
23/07:30am 25.0 ESE 11 14 1011.1 - 31.6 - - - - - - -
23/07:00am 24.4 E 12 17 1010.1 - 31.6 - - - - - - -
23/06:30am 24.4 ESE 12 16 1010.1 - 30.8 - - - - - - -
23/06:00am 25.1 E 16 24 1010.0 - 30.2 - - - - - - -
23/05:30am 25.2 ESE 12 16 1009.5 - 28.6 - - - - - - -
23/05:00am 25.2 ESE 10 14 1009.6 - 27.8 - - - - - - -
23/04:30am 25.2 ESE 12 17 1009.5 - 27.0 - - - - - - -
23/04:00am 25.5 ESE 13 21 1009.3 - 25.4 - - - - - - -
23/03:30am 25.7 ESE 11 16 1009.2 - 24.0 - - - - - - -
23/03:00am 25.2 ESE 5 11 1009.7 - 23.8 - - - - - - -
23/02:30am 25.1 ESE 9 15 1009.6 - 22.0 - - - - - - -
23/02:00am 25.3 E 9 22 1010.3 - 11.2 - - - - - - -
23/01:30am 26.4 ESE 8 12 1010.5 - 0.6 - - - - - - -
23/01:00am 26.3 ESE 10 13 1010.7 - 0.6 - - - - - - -
23/12:30am 26.5 ESE 12 17 1010.9 - 0.6 - - - - - - -
23/12:00am 26.7 ESE 12 17 1011.5 - 0.6 - - - - - - -
 
Date/Time
EST
Temp

°C
Wind Pressure Rain
since 9am
mm
Weather Cloud Vis
km
Sea
Height
m
Swell
Dir
 
Speed
knots
Gust
knots
hPa Trend Height
m
Period
s
Dir
22/11:30pm 26.8 ESE 11 15 1011.3 - 0.6 - - - - - - -
22/11:00pm 26.7 ESE 12 17 1011.3 - 0.6 - - - - - - -
22/10:30pm 26.6 SE 10 15 1011.6 - 0.6 - - - - - - -
22/10:00pm 26.5 SE 9 13 1011.7 - 0.6 - - - - - - -
22/09:30pm 26.3 SE 8 12 1012.1 - 0.6 - - - - - - -
22/09:00pm 26.1 SSE 7 12 1012.4 - 0.6 - - - - - - -
22/08:30pm 25.9 SE 6 10 1012.0 - 0.6 - - - - - - -
22/08:00pm 25.5 SSE 5 7 1011.7 - 0.6 - - - - - - -
22/07:30pm 25.5 SSE 5 8 1011.5 - 0.6 - - - - - - -
22/07:00pm 25.6 SSE 5 9 1011.4 - 0.6 - - - - - - -
22/06:30pm 25.6 S 4 8 1011.5 - 0.2 - - - - - - -
22/06:00pm 26.0 S 6 8 1011.6 - 0.0 - - - - - - -
22/05:30pm 26.6 SSE 4 6 1011.4 - 0.0 - - - - - - -
22/05:00pm 26.9 SE 4 7 1010.9 - 0.0 - - - - - - -
22/04:30pm 26.7 ESE 6 8 1010.9 - 0.0 - - - - - - -
22/04:00pm 26.7 ESE 7 9 1010.8 - 0.0 - - - - - - -
22/03:30pm 28.0 E 10 14 1010.7 - 0.0 - - - - - - -
22/03:00pm 28.7 E 11 15 1010.9 - 0.0 - - - - - - -
22/02:30pm 29.1 ESE 10 14 1010.7 - 0.0 - - - - - - -
22/02:00pm 29.3 ESE 10 14 1011.0 - 0.0 - - - - - - -
22/01:30pm 29.6 E 13 18 1011.2 - 0.0 - - - - - - -
22/01:00pm 28.8 ESE 11 16 1011.8 - 0.0 - - - - - - -
22/12:30pm 28.7 ESE 10 14 1012.3 - 0.0 - - - - - - -
22/12:00pm 28.9 ESE 9 13 1013.1 - 0.0 - - - - - - -
22/11:30am 28.3 ESE 10 14 1013.5 - 0.0 - - - - - - -
22/11:00am 28.5 E 13 18 1013.5 - 0.0 - - - - - - -
22/10:30am 29.2 E 11 15 1013.7 - 0.0 - - - - - - -
22/10:00am 28.1 ESE 9 14 1013.9 - 0.0 - - - - - - -
22/09:30am 27.2 E 11 23 1013.6 - 0.0 - - - - - - -
22/09:00am 27.0 E 10 13 1013.5 - 0.0 - - - - - - -
22/08:30am 26.6 E 9 13 1013.1 - 0.0 - - - - - - -
22/08:00am 26.7 E 10 14 1012.9 - 0.0 - - - - - - -
22/07:30am 26.0 E 8 11 1012.5 - 0.0 - - - - - - -
22/07:00am 25.6 ESE 6 8 1012.3 - 0.0 - - - - - - -
22/06:30am 25.6 E 5 7 1012.1 - 0.0 - - - - - - -
22/06:00am 25.5 E 5 7 1012.0 - 0.0 - - - - - - -
22/05:30am 25.3 E 5 6 1011.5 - 0.0 - - - - - - -
22/05:00am 24.9 E 5 7 1011.4 - 0.0 - - - - - - -
22/04:30am 25.4 E 5 6 1011.3 - 0.0 - - - - - - -
22/04:00am 25.9 ESE 4 5 1011.3 - 0.0 - - - - - - -
22/03:30am 25.9 E 5 6 1011.3 - 0.0 - - - - - - -
22/03:00am 25.3 SE 3 4 1011.5 - 0.0 - - - - - - -
22/02:30am 25.2 SE 4 5 1011.3 - 0.0 - - - - - - -
22/02:00am 25.3 SE 4 4 1011.4 - 0.0 - - - - - - -
22/01:30am 25.3 SE 3 4 1011.6 - 0.0 - - - - - - -
22/01:00am 24.8 CALM 0 4 1011.9 - 0.0 - - - - - - -
22/12:30am 24.6 CALM 0 0 1012.2 - 0.0 - - - - - - -
22/12:00am 24.3 CALM 0 0 1012.5 - 0.0 - - - - - - -
 
Date/Time
EST
Temp

°C
Wind Pressure Rain
since 9am
mm
Weather Cloud Vis
km
Sea
Height
m
Swell
Dir
 
Speed
knots
Gust
knots
hPa Trend Height
m
Period
s
Dir
21/11:30pm 24.0 CALM 0 0 1012.4 - 0.0 - - - - - - -
21/11:00pm 24.2 CALM 0 0 1012.4 - 0.0 - - - - - - -
21/10:30pm 24.3 CALM 0 0 1012.6 - 0.0 - - - - - - -
21/10:00pm 24.5 CALM 0 0 1012.8 - 0.0 - - - - - - -
21/09:30pm 24.6 CALM 0 0 1012.8 - 0.0 - - - - - - -
21/09:00pm 24.6 CALM 0 0 1013.0 - 0.0 - - - - - - -
21/08:30pm 24.8 CALM 0 0 1012.6 - 0.0 - - - - - - -
21/08:00pm 25.1 CALM 0 0 1012.5 - 0.0 - - - - - - -
21/07:30pm 25.2 SE 3 3 1012.4 - 0.0 - - - - - - -
21/07:00pm 26.0 ESE 3 4 1012.2 - 0.0 - - - - - - -
21/06:30pm 27.3 E 5 6 1012.1 - 0.0 - - - - - - -
21/06:00pm 28.1 SE 5 8 1012.1 - 0.0 - - - - - - -
21/05:30pm 28.7 SE 7 11 1011.8 - 0.0 - - - - - - -
21/05:00pm 29.2 SE 7 11 1011.5 - 0.0 - - - - - - -
21/04:30pm 29.7 SSE 8 12 1011.4 - 0.0 - - - - - - -
21/04:00pm 30.0 SSE 7 10 1011.3 - 0.0 - - - - - - -
21/03:30pm 30.2 SSE 7 12 1011.4 - 0.0 - - - - - - -
21/03:00pm 31.3 ESE 8 11 1011.5 - 0.0 - - - - - - -
21/02:30pm 30.9 SE 9 13 1011.3 - 0.0 - - - - - - -
21/02:00pm 31.1 ESE 9 13 1011.5 - 0.0 - - - - - - -
21/01:30pm 30.7 ESE 10 14 1011.7 - 0.0 - - - - - - -
21/01:00pm 30.7 ESE 10 14 1011.9 - 0.0 - - - - - - -
21/12:30pm 31.1 E 11 15 1012.2 - 0.0 - - - - - - -
21/12:00pm 30.9 ESE 11 15 1012.9 - 0.0 - - - - - - -
21/11:30am 30.9 E 11 15 1013.2 - 0.0 - - - - - - -
21/11:00am 30.8 E 12 15 1013.6 - 0.0 - - - - - - -
21/10:30am 30.3 E 11 14 1013.7 - 0.0 - - - - - - -
21/10:00am 29.9 E 11 14 1013.6 - 0.0 - - - - - - -
21/09:30am 29.2 E 12 17 1013.2 - 0.0 - - - - - - -
21/09:00am 28.4 E 10 13 1013.0 - 0.2 - - - - - - -
21/08:30am 27.3 E 8 10 1012.6 - 0.2 - - - - - - -
21/08:00am 25.7 ENE 6 7 1012.4 - 0.2 - - - - - - -
21/07:30am 24.6 E 6 7 1012.3 - 0.2 - - - - - - -
21/07:00am 24.2 E 7 9 1012.0 - 0.2 - - - - - - -
21/06:30am 24.5 E 6 7 1011.5 - 0.2 - - - - - - -
21/06:00am 24.1 ESE 2 5 1011.6 - 0.2 - - - - - - -
21/05:30am 23.6 CALM 0 0 1011.1 - 0.2 - - - - - - -
21/05:00am 23.0 CALM 0 0 1011.0 - 0.2 - - - - - - -
21/04:30am 22.8 SE 2 3 1010.8 - 0.2 - - - - - - -

Other Formats:

Comma delimited format used in spreadsheet applications
http://www.bom.gov.au/fwo/IDQ60701/IDQ60701.94254.axf

JavaScript Object Notation format (JSON) in row-major order
http://www.bom.gov.au/fwo/IDQ60701/IDQ60701.94254.json